Terminal Aerodrome Forecast
Issued by NWS St Louis, MO

Home | Current Version | Previous Version | Graphics & Text | Print | Product List | Glossary On
Versions: 1 2 3 4 5 6 7 8 9 10 11 12 13 14 15 16 17 18 19 20 21 22 23 24 25 26
000
FTUS43 KLSX 271456 AAB
TAFSTL
TAF AMD
KSTL 271456Z 2715/2818 28012KT P6SM BKN018
     FM271700 27010G17KT P6SM BKN025
     FM271900 26010G17KT P6SM SCT035
     FM272200 26009KT P6SM FEW200
     FM280000 VRB05KT P6SM BKN200=

USA.gov is the U.S. government's official web portal to all federal, state and local government web resources and services.